Observation data for Northwest Lubbock on 12/09/2018      Previous  Date       Current Mesonet Observations  Soil Data  Daily Summary Page  Observations in Plain Language
KLBW 090600Z 33003KT M09/M09 A3031 RMK A01 T10881093  RH  096%=      5-min Rain = 0
KLBW 090605Z 33003KT M09/M09 A3031 RMK A01 T10871091  RH  097%=      5-min Rain = 0
KLBW 090610Z 31004KT M09/M09 A3031 RMK A01 T10871091  RH  097%=      5-min Rain = 0
KLBW 090615Z 31003KT M09/M09 A3031 RMK A01 T10871091  RH  097%=      5-min Rain = 0
KLBW 090620Z 31002KT M09/M09 A3031 RMK A01 T10871091  RH  097%=      5-min Rain = 0
KLBW 090625Z 30002KT M09/M09 A3031 RMK A01 T10881093  RH  096%=      5-min Rain = 0
KLBW 090630Z 30003KT M09/M09 A3031 RMK A01 T10871092  RH  096%=      5-min Rain = 0
KLBW 090635Z 30002KT M09/M09 A3031 RMK A01 T10871092  RH  096%=      5-min Rain = 0
KLBW 090640Z 30004KT M09/M09 A3031 RMK A01 T10871092  RH  096%=      5-min Rain = 0
KLBW 090645Z 30003KT M09/M09 A3031 RMK A01 T10871092  RH  096%=      5-min Rain = 0
KLBW 090650Z 30003KT M09/M09 A3031 RMK A01 T10881093  RH  096%=      5-min Rain = 0
KLBW 090655Z 29002KT M09/M09 A3031 RMK A01 T10881093  RH  096%=      5-min Rain = 0
KLBW 090700Z 28002KT M09/M10 A3031 RMK A01 T10901095  RH  096%=      5-min Rain = 0
KLBW 090705Z 27002KT M09/M10 A3031 RMK A01 T10921098  RH  095%=      5-min Rain = 0
KLBW 090710Z 28002KT M09/M10 A3031 RMK A01 T10931098  RH  095%=      5-min Rain = 0
KLBW 090715Z 30002KT M09/M10 A3031 RMK A01 T10921098  RH  095%=      5-min Rain = 0
KLBW 090720Z 30003KT M09/M09 A303 RMK A01 T10891094  RH  096%=      5-min Rain = 0
KLBW 090725Z 30003KT M09/M09 A303 RMK A01 T10861091  RH  096%=      5-min Rain = 0
KLBW 090730Z 30002KT M09/M09 A303 RMK A01 T10861091  RH  096%=      5-min Rain = 0
KLBW 090735Z 30003KT M09/M09 A303 RMK A01 T10871092  RH  096%=      5-min Rain = 0
KLBW 090740Z 30002KT M09/M09 A303 RMK A01 T10871092  RH  096%=      5-min Rain = 0
KLBW 090745Z 31002KT M09/M09 A303 RMK A01 T10881093  RH  096%=      5-min Rain = 0
KLBW 090750Z 31002KT M09/M10 A303 RMK A01 T10891095  RH  095%=      5-min Rain = 0
KLBW 090755Z 30002KT M09/M10 A303 RMK A01 T10891095  RH  095%=      5-min Rain = 0
KLBW 090800Z 31002KT M09/M10 A303 RMK A01 T10891095  RH  095%=      5-min Rain = 0
KLBW 090805Z 31002KT M09/M10 A303 RMK A01 T10891096  RH  095%=      5-min Rain = 0
KLBW 090810Z 31002KT M09/M10 A303 RMK A01 T10901096  RH  095%=      5-min Rain = 0
KLBW 090815Z 31002KT M09/M10 A303 RMK A01 T10901096  RH  095%=      5-min Rain = 0
KLBW 090820Z 32002KT M09/M10 A303 RMK A01 T10901097  RH  095%=      5-min Rain = 0
KLBW 090825Z 33002KT M09/M10 A303 RMK A01 T10911097  RH  095%=      5-min Rain = 0
KLBW 090830Z 32002KT M09/M10 A303 RMK A01 T10921098  RH  095%=      5-min Rain = 0
KLBW 090835Z 33001KT M09/M10 A303 RMK A01 T10921098  RH  095%=      5-min Rain = 0
KLBW 090840Z 33001KT M09/M10 A303 RMK A01 T10921099  RH  094%=      5-min Rain = 0
KLBW 090845Z 33000KT M09/M10 A3029 RMK A01 T10931100  RH  094%=      5-min Rain = 0
KLBW 090850Z 31001KT M09/M10 A303 RMK A01 T10931101  RH  094%=      5-min Rain = 0
KLBW 090855Z 30001KT M09/M10 A303 RMK A01 T10941101  RH  094%=      5-min Rain = 0
KLBW 090900Z 30001KT M09/M10 A303 RMK A01 T10941101  RH  094%=      5-min Rain = 0
KLBW 090905Z 28001KT M09/M10 A303 RMK A01 T10941101  RH  094%=      5-min Rain = 0
KLBW 090910Z 27001KT M09/M10 A3029 RMK A01 T10941101  RH  094%=      5-min Rain = 0
KLBW 090915Z 29001KT M09/M10 A303 RMK A01 T10941102  RH  094%=      5-min Rain = 0
KLBW 090920Z 30001KT M09/M10 A303 RMK A01 T10941103  RH  093%=      5-min Rain = 0
KLBW 090925Z 30001KT M10/M10 A303 RMK A01 T10951103  RH  093%=      5-min Rain = 0
KLBW 090930Z 30001KT M09/M10 A303 RMK A01 T10931102  RH  093%=      5-min Rain = 0
KLBW 090935Z 31001KT M09/M10 A303 RMK A01 T10931101  RH  093%=      5-min Rain = 0
KLBW 090940Z 32003KT M09/M10 A303 RMK A01 T10921100  RH  094%=      5-min Rain = 0
KLBW 090945Z 33002KT M09/M10 A303 RMK A01 T10911098  RH  094%=      5-min Rain = 0
KLBW 090950Z 34002KT M09/M10 A3029 RMK A01 T10921099  RH  094%=      5-min Rain = 0
KLBW 090955Z 35001KT M09/M10 A3029 RMK A01 T10931101  RH  094%=      5-min Rain = 0
KLBW 091000Z 35001KT M09/M10 A3029 RMK A01 T10941101  RH  094%=      5-min Rain = 0
KLBW 091005Z 30002KT M10/M10 A3029 RMK A01 T10961104  RH  093%=      5-min Rain = 0
KLBW 091010Z 31003KT M10/M11 A3029 RMK A01 T10971105  RH  093%=      5-min Rain = 0
KLBW 091015Z 30003KT M10/M11 A3029 RMK A01 T10991107  RH  093%=      5-min Rain = 0
KLBW 091020Z 30003KT M10/M11 A3029 RMK A01 T10991108  RH  093%=      5-min Rain = 0
KLBW 091025Z 30003KT M10/M11 A3029 RMK A01 T10991107  RH  093%=      5-min Rain = 0
KLBW 091030Z 31003KT M10/M11 A3029 RMK A01 T10991107  RH  093%=      5-min Rain = 0
KLBW 091035Z 32003KT M10/M11 A303 RMK A01 T10991107  RH  093%=      5-min Rain = 0
KLBW 091040Z 31003KT M10/M11 A3029 RMK A01 T10991108  RH  093%=      5-min Rain = 0
KLBW 091045Z 30002KT M10/M11 A3029 RMK A01 T10991108  RH  093%=      5-min Rain = 0
KLBW 091050Z 30002KT M10/M11 A3029 RMK A01 T10991107  RH  093%=      5-min Rain = 0
KLBW 091055Z 30003KT M10/M11 A3029 RMK A01 T10981107  RH  093%=      5-min Rain = 0
KLBW 091100Z 30003KT M10/M11 A303 RMK A01 T10981106  RH  093%=      5-min Rain = 0
KLBW 091105Z 30003KT M10/M11 A303 RMK A01 T10971106  RH  093%=      5-min Rain = 0
KLBW 091110Z 30003KT M10/M11 A303 RMK A01 T10971105  RH  093%=      5-min Rain = 0
KLBW 091115Z 29003KT M10/M11 A303 RMK A01 T10981106  RH  093%=      5-min Rain = 0
KLBW 091120Z 30003KT M10/M11 A303 RMK A01 T10971106  RH  093%=      5-min Rain = 0
KLBW 091125Z 29002KT M10/M11 A303 RMK A01 T10971105  RH  093%=      5-min Rain = 0
KLBW 091130Z 29002KT M10/M11 A303 RMK A01 T10961105  RH  093%=      5-min Rain = 0
KLBW 091135Z 29002KT M10/M11 A303 RMK A01 T10971107  RH  093%=      5-min Rain = 0
KLBW 091140Z 30002KT M10/M11 A3031 RMK A01 T10991108  RH  092%=      5-min Rain = 0
KLBW 091145Z 31002KT M10/M11 A3031 RMK A01 T10981108  RH  092%=      5-min Rain = 0
KLBW 091150Z 30003KT M10/M11 A3031 RMK A01 T10961105  RH  093%=      5-min Rain = 0
KLBW 091155Z 30003KT M09/M10 A3031 RMK A01 T10941102  RH  093%=      5-min Rain = 0
KLBW 091200Z 31003KT M09/M10 A3031 RMK A01 T10931102  RH  093%=      5-min Rain = 0
KLBW 091205Z 29003KT M09/M10 A3031 RMK A01 T10931102  RH  093%=      5-min Rain = 0
KLBW 091210Z 29003KT M10/M11 A3031 RMK A01 T10971107  RH  092%=      5-min Rain = 0
KLBW 091215Z 29003KT M10/M11 A3031 RMK A01 T10991109  RH  092%=      5-min Rain = 0
KLBW 091220Z 30004KT M10/M11 A3032 RMK A01 T10981108  RH  092%=      5-min Rain = 0
KLBW 091225Z 30003KT M10/M11 A3032 RMK A01 T10971106  RH  092%=      5-min Rain = 0
KLBW 091230Z 29003KT M10/M11 A3032 RMK A01 T10961105  RH  093%=      5-min Rain = 0
KLBW 091235Z 29003KT M10/M11 A3032 RMK A01 T10971106  RH  092%=      5-min Rain = 0
KLBW 091240Z 28003KT M10/M11 A3032 RMK A01 T10951105  RH  093%=      5-min Rain = 0
KLBW 091245Z 29003KT M09/M10 A3032 RMK A01 T10941103  RH  093%=      5-min Rain = 0
KLBW 091250Z 29003KT M09/M10 A3033 RMK A01 T10931102  RH  093%=      5-min Rain = 0
KLBW 091255Z 29003KT M09/M10 A3033 RMK A01 T10921100  RH  093%=      5-min Rain = 0
KLBW 091300Z 30003KT M09/M10 A3033 RMK A01 T10911099  RH  093%=      5-min Rain = 0
KLBW 091305Z 30002KT M09/M10 A3033 RMK A01 T10911100  RH  093%=      5-min Rain = 0
KLBW 091310Z 30002KT M09/M10 A3033 RMK A01 T10941103  RH  093%=      5-min Rain = 0
KLBW 091315Z 30002KT M10/M11 A3033 RMK A01 T10971107  RH  092%=      5-min Rain = 0
KLBW 091320Z 30002KT M10/M11 A3034 RMK A01 T10991110  RH  092%=      5-min Rain = 0
KLBW 091325Z 30002KT M10/M11 A3034 RMK A01 T10971107  RH  092%=      5-min Rain = 0
KLBW 091330Z 30002KT M10/M11 A3034 RMK A01 T10981108  RH  092%=      5-min Rain = 0
KLBW 091335Z 30002KT M10/M11 A3034 RMK A01 T11001111  RH  092%=      5-min Rain = 0
KLBW 091340Z 30003KT M10/M11 A3034 RMK A01 T11011111  RH  092%=      5-min Rain = 0
KLBW 091345Z 29003KT M10/M11 A3035 RMK A01 T10981107  RH  092%=      5-min Rain = 0
KLBW 091350Z 29002KT M10/M11 A3035 RMK A01 T10961106  RH  093%=      5-min Rain = 0
KLBW 091355Z 30002KT M10/M11 A3035 RMK A01 T10951105  RH  093%=      5-min Rain = 0
KLBW 091400Z 31003KT M10/M10 A3035 RMK A01 T10951104  RH  092%=      5-min Rain = 0
KLBW 091405Z 30003KT M09/M10 A3035 RMK A01 T10941103  RH  092%=      5-min Rain = 0
KLBW 091410Z 30003KT M09/M10 A3035 RMK A01 T10891098  RH  093%=      5-min Rain = 0
KLBW 091415Z 30003KT M08/M09 A3035 RMK A01 T10841091  RH  094%=      5-min Rain = 0
KLBW 091420Z 29003KT M08/M09 A3036 RMK A01 T10801087  RH  094%=      5-min Rain = 0
KLBW 091425Z 30003KT M08/M09 A3036 RMK A01 T10781085  RH  094%=      5-min Rain = 0
KLBW 091430Z 29002KT M08/M08 A3036 RMK A01 T10751083  RH  094%=      5-min Rain = 0
KLBW 091435Z 29001KT M07/M08 A3036 RMK A01 T10681075  RH  095%=      5-min Rain = 0
KLBW 091440Z 30001KT M06/M07 A3036 RMK A01 T10641070  RH  096%=      5-min Rain = 0
KLBW 091445Z 31001KT M06/M06 A3037 RMK A01 T10571062  RH  096%=      5-min Rain = 0
KLBW 091450Z 33002KT M06/M07 A3037 RMK A01 T10601066  RH  095%=      5-min Rain = 0
KLBW 091455Z 33003KT M07/M08 A3037 RMK A01 T10691078  RH  093%=      5-min Rain = 0
KLBW 091500Z 31002KT M07/M08 A3037 RMK A01 T10741083  RH  093%=      5-min Rain = 0
KLBW 091505Z 31002KT M07/M08 A3037 RMK A01 T10731082  RH  093%=      5-min Rain = 0
KLBW 091510Z 31002KT M07/M08 A3037 RMK A01 T10691077  RH  094%=      5-min Rain = 0
KLBW 091515Z 31002KT M07/M07 A3038 RMK A01 T10661074  RH  094%=      5-min Rain = 0
KLBW 091520Z 31003KT M07/M08 A3038 RMK A01 T10661075  RH  093%=      5-min Rain = 0
KLBW 091525Z 32002KT M07/M07 A3038 RMK A01 T10651074  RH  093%=      5-min Rain = 0
KLBW 091530Z 31002KT M07/M07 A3038 RMK A01 T10651074  RH  093%=      5-min Rain = 0
KLBW 091535Z 32002KT M06/M07 A3039 RMK A01 T10641073  RH  093%=      5-min Rain = 0
KLBW 091540Z 32002KT M06/M07 A3039 RMK A01 T10641073  RH  093%=      5-min Rain = 0
KLBW 091545Z 31002KT M06/M07 A3039 RMK A01 T10631073  RH  093%=      5-min Rain = 0
KLBW 091550Z 32002KT M06/M07 A3039 RMK A01 T10611070  RH  094%=      5-min Rain = 0
KLBW 091555Z 32001KT M06/M07 A304 RMK A01 T10611069  RH  094%=      5-min Rain = 0
KLBW 091600Z 32002KT M06/M07 A304 RMK A01 T10591067  RH  094%=      5-min Rain = 0
KLBW 091605Z 31001KT M06/M06 A304 RMK A01 T10561064  RH  095%=      5-min Rain = 0
KLBW 091610Z 31003KT M05/M06 A304 RMK A01 T10521060  RH  095%=      5-min Rain = 0
KLBW 091615Z 31003KT M05/M06 A304 RMK A01 T10511059  RH  095%=      5-min Rain = 0
KLBW 091620Z 30002KT M05/M06 A304 RMK A01 T10481055  RH  095%=      5-min Rain = 0
KLBW 091625Z 31002KT M05/M05 A304 RMK A01 T10461053  RH  095%=      5-min Rain = 0
KLBW 091630Z 29002KT M04/M05 A304 RMK A01 T10431050  RH  095%=      5-min Rain = 0
KLBW 091635Z 28002KT M04/M05 A304 RMK A01 T10401046  RH  095%=      5-min Rain = 0
KLBW 091640Z 27002KT M04/M05 A304 RMK A01 T10391047  RH  095%=      5-min Rain = 0
KLBW 091645Z 28002KT M04/M05 A304 RMK A01 T10371045  RH  095%=      5-min Rain = 0
KLBW 091650Z 32002KT M03/M04 A304 RMK A01 T10331039  RH  096%=      5-min Rain = 0
KLBW 091655Z 32002KT M03/M04 A304 RMK A01 T10331041  RH  095%=      5-min Rain = 0
KLBW 091700Z 32002KT M03/M04 A304 RMK A01 T10331041  RH  095%=      5-min Rain = 0
KLBW 091705Z 29003KT M03/M04 A304 RMK A01 T10311039  RH  095%=      5-min Rain = 0.01
KLBW 091710Z 30003KT M03/M04 A304 RMK A01 T10291037  RH  095%=      5-min Rain = 0
KLBW 091715Z 30003KT M03/M04 A304 RMK A01 T10271035  RH  095%=      5-min Rain = 0
KLBW 091720Z 32003KT M02/M03 A304 RMK A01 T10241032  RH  095%=      5-min Rain = 0
KLBW 091725Z 33003KT M02/M03 A304 RMK A01 T10231032  RH  094%=      5-min Rain = 0
KLBW 091730Z 33002KT M02/M03 A3039 RMK A01 T10221032  RH  093%=      5-min Rain = 0.01
KLBW 091735Z 32002KT M02/M03 A3039 RMK A01 T10201031  RH  093%=      5-min Rain = 0
KLBW 091740Z 33003KT M02/M03 A3039 RMK A01 T10201033  RH  091%=      5-min Rain = 0
KLBW 091745Z 33003KT M02/M03 A3039 RMK A01 T10191033  RH  091%=      5-min Rain = 0
KLBW 091750Z 33003KT M02/M03 A3039 RMK A01 T10191033  RH  090%=      5-min Rain = 0
KLBW 091755Z 32004KT M02/M03 A3039 RMK A01 T10191034  RH  090%=      5-min Rain = 0
KLBW 091800Z 31003KT M02/M03 A3039 RMK A01 T10171032  RH  090%=      5-min Rain = 0
KLBW 091805Z 31002KT M01/M03 A3038 RMK A01 T10131028  RH  090%=      5-min Rain = 0
KLBW 091810Z 29002KT M01/M03 A3038 RMK A01 T10131029  RH  089%=      5-min Rain = 0
KLBW 091815Z 29003KT M01/M03 A3038 RMK A01 T10121029  RH  089%=      5-min Rain = 0
KLBW 091820Z 30003KT M01/M03 A3038 RMK A01 T10111029  RH  088%=      5-min Rain = 0
KLBW 091825Z 29002KT M01/M03 A3038 RMK A01 T10071026  RH  087%=      5-min Rain = 0
KLBW 091830Z 28003KT M00/M03 A3038 RMK A01 T10041026  RH  086%=      5-min Rain = 0
KLBW 091835Z 28003KT M00/M03 A3037 RMK A01 T10031027  RH  085%=      5-min Rain = 0
KLBW 091840Z 31002KT 00/M03 A3037 RMK A01 T00011025  RH  083%=      5-min Rain = 0
KLBW 091845Z 33002KT 00/M03 A3037 RMK A01 T00031030  RH  079%=      5-min Rain = 0
KLBW 091850Z 34002KT 00/M04 A3036 RMK A01 T00041035  RH  075%=      5-min Rain = 0
KLBW 091855Z 33002KT 01/M04 A3036 RMK A01 T00061036  RH  074%=      5-min Rain = 0
KLBW 091900Z 33002KT 01/M03 A3036 RMK A01 T00081034  RH  074%=      5-min Rain = 0
KLBW 091905Z 33002KT 01/M03 A3036 RMK A01 T00101033  RH  073%=      5-min Rain = 0
KLBW 091910Z 33002KT 01/M03 A3036 RMK A01 T00121034  RH  072%=      5-min Rain = 0
KLBW 091915Z 32003KT 01/M04 A3035 RMK A01 T00101037  RH  071%=      5-min Rain = 0
KLBW 091920Z 32003KT 01/M04 A3035 RMK A01 T00111035  RH  072%=      5-min Rain = 0
KLBW 091925Z 32002KT 01/M03 A3035 RMK A01 T00131034  RH  071%=      5-min Rain = 0
KLBW 091930Z 32002KT 02/M03 A3035 RMK A01 T00171031  RH  071%=      5-min Rain = 0
KLBW 091935Z 32003KT 02/M03 A3035 RMK A01 T00191033  RH  069%=      5-min Rain = 0
KLBW 091940Z 33003KT 02/M03 A3035 RMK A01 T00181032  RH  070%=      5-min Rain = 0
KLBW 091945Z 32003KT 02/M03 A3035 RMK A01 T00191031  RH  069%=      5-min Rain = 0
KLBW 091950Z 33003KT 02/M03 A3035 RMK A01 T00191032  RH  069%=      5-min Rain = 0
KLBW 091955Z 32002KT 02/M03 A3035 RMK A01 T00221034  RH  067%=      5-min Rain = 0
KLBW 092000Z 33002KT 02/M03 A3035 RMK A01 T00231034  RH  066%=      5-min Rain = 0
KLBW 092005Z 33002KT 02/M04 A3034 RMK A01 T00231035  RH  066%=      5-min Rain = 0
KLBW 092010Z 34003KT 02/M04 A3034 RMK A01 T00231037  RH  065%=      5-min Rain = 0
KLBW 092015Z 33002KT 02/M04 A3034 RMK A01 T00231040  RH  064%=      5-min Rain = 0
KLBW 092020Z 33003KT 02/M04 A3034 RMK A01 T00241039  RH  063%=      5-min Rain = 0
KLBW 092025Z 33003KT 02/M04 A3034 RMK A01 T00241038  RH  064%=      5-min Rain = 0
KLBW 092030Z 33003KT 02/M04 A3034 RMK A01 T00231038  RH  064%=      5-min Rain = 0
KLBW 092035Z 32003KT 03/M04 A3034 RMK A01 T00251036  RH  064%=      5-min Rain = 0
KLBW 092040Z 33003KT 03/M04 A3034 RMK A01 T00251037  RH  064%=      5-min Rain = 0
KLBW 092045Z 33003KT 03/M04 A3034 RMK A01 T00251037  RH  064%=      5-min Rain = 0
KLBW 092050Z 33003KT 03/M04 A3034 RMK A01 T00261040  RH  062%=      5-min Rain = 0
KLBW 092055Z 32003KT 03/M04 A3034 RMK A01 T00261037  RH  063%=      5-min Rain = 0
KLBW 092100Z 30003KT 03/M04 A3034 RMK A01 T00271037  RH  063%=      5-min Rain = 0
KLBW 092105Z 29003KT 03/M04 A3034 RMK A01 T00291036  RH  063%=      5-min Rain = 0
KLBW 092110Z 30002KT 03/M03 A3034 RMK A01 T00311034  RH  062%=      5-min Rain = 0
KLBW 092115Z 30003KT 03/M04 A3034 RMK A01 T00311037  RH  061%=      5-min Rain = 0
KLBW 092120Z 30002KT 03/M04 A3034 RMK A01 T00311040  RH  060%=      5-min Rain = 0
KLBW 092125Z 29002KT 03/M04 A3034 RMK A01 T00331043  RH  058%=      5-min Rain = 0
KLBW 092130Z 26002KT 03/M04 A3034 RMK A01 T00331040  RH  059%=      5-min Rain = 0
KLBW 092135Z 26002KT 03/M04 A3034 RMK A01 T00341042  RH  058%=      5-min Rain = 0
KLBW 092140Z 26003KT 03/M05 A3034 RMK A01 T00341047  RH  056%=      5-min Rain = 0
KLBW 092145Z 28003KT 03/M05 A3034 RMK A01 T00331047  RH  056%=      5-min Rain = 0
KLBW 092150Z 30003KT 03/M05 A3034 RMK A01 T00331045  RH  057%=      5-min Rain = 0
KLBW 092155Z 31004KT 03/M05 A3034 RMK A01 T00321045  RH  058%=      5-min Rain = 0
KLBW 092200Z 31003KT 03/M04 A3034 RMK A01 T00311043  RH  059%=      5-min Rain = 0
KLBW 092205Z 31004KT 03/M04 A3034 RMK A01 T00291042  RH  060%=      5-min Rain = 0
KLBW 092210Z 32004KT 03/M04 A3034 RMK A01 T00281041  RH  061%=      5-min Rain = 0
KLBW 092215Z 33003KT 03/M04 A3034 RMK A01 T00271038  RH  063%=      5-min Rain = 0
KLBW 092220Z 32003KT 03/M04 A3034 RMK A01 T00261037  RH  063%=      5-min Rain = 0
KLBW 092225Z 31003KT 03/M04 A3034 RMK A01 T00281035  RH  063%=      5-min Rain = 0
KLBW 092230Z 29003KT 03/M04 A3034 RMK A01 T00301036  RH  062%=      5-min Rain = 0
KLBW 092235Z 29003KT 03/M04 A3034 RMK A01 T00281035  RH  063%=      5-min Rain = 0
KLBW 092240Z 29003KT 03/M03 A3034 RMK A01 T00291034  RH  064%=      5-min Rain = 0
KLBW 092245Z 27003KT 03/M03 A3034 RMK A01 T00291032  RH  065%=      5-min Rain = 0
KLBW 092250Z 28003KT 03/M03 A3034 RMK A01 T00281033  RH  064%=      5-min Rain = 0
KLBW 092255Z 29003KT 03/M04 A3034 RMK A01 T00271035  RH  064%=      5-min Rain = 0
KLBW 092300Z 27003KT 03/M03 A3034 RMK A01 T00271034  RH  065%=      5-min Rain = 0
KLBW 092305Z 27003KT 03/M03 A3034 RMK A01 T00261033  RH  066%=      5-min Rain = 0
KLBW 092310Z 27002KT 03/M03 A3034 RMK A01 T00261031  RH  066%=      5-min Rain = 0
KLBW 092315Z 27003KT 03/M03 A3034 RMK A01 T00251032  RH  067%=      5-min Rain = 0
KLBW 092320Z 26003KT 02/M03 A3034 RMK A01 T00231031  RH  068%=      5-min Rain = 0
KLBW 092325Z 26003KT 02/M03 A3034 RMK A01 T00201032  RH  069%=      5-min Rain = 0
KLBW 092330Z 27003KT 02/M04 A3034 RMK A01 T00161035  RH  069%=      5-min Rain = 0
KLBW 092335Z 26002KT 01/M04 A3034 RMK A01 T00131038  RH  069%=      5-min Rain = 0
KLBW 092340Z 25002KT 01/M04 A3034 RMK A01 T00101040  RH  070%=      5-min Rain = 0
KLBW 092345Z 25002KT 01/M04 A3034 RMK A01 T00061041  RH  071%=      5-min Rain = 0
KLBW 092350Z 25002KT 00/M04 A3034 RMK A01 T00011042  RH  073%=      5-min Rain = 0
KLBW 092355Z 25003KT M00/M04 A3034 RMK A01 T10021039  RH  076%=      5-min Rain = 0
KLBW 100000Z 26003KT M01/M04 A3034 RMK A01 T10051037  RH  079%=      5-min Rain = 0
KLBW 100005Z 24003KT M01/M04 A3034 RMK A01 T10051035  RH  080%=      5-min Rain = 0
KLBW 100010Z 24003KT M01/M04 A3034 RMK A01 T10081037  RH  081%=      5-min Rain = 0
KLBW 100015Z 24004KT M01/M04 A3034 RMK A01 T10111037  RH  083%=      5-min Rain = 0
KLBW 100020Z 24004KT M01/M04 A3034 RMK A01 T10121035  RH  084%=      5-min Rain = 0
KLBW 100025Z 24004KT M01/M04 A3034 RMK A01 T10131036  RH  085%=      5-min Rain = 0
KLBW 100030Z 23004KT M02/M04 A3034 RMK A01 T10171038  RH  086%=      5-min Rain = 0
KLBW 100035Z 24003KT M02/M04 A3034 RMK A01 T10221042  RH  086%=      5-min Rain = 0
KLBW 100040Z 24002KT M03/M05 A3034 RMK A01 T10261045  RH  088%=      5-min Rain = 0
KLBW 100045Z 26002KT M03/M04 A3035 RMK A01 T10281044  RH  090%=      5-min Rain = 0
KLBW 100050Z 26003KT M03/M04 A3034 RMK A01 T10281040  RH  092%=      5-min Rain = 0
KLBW 100055Z 26002KT M03/M04 A3034 RMK A01 T10281039  RH  093%=      5-min Rain = 0
KLBW 100100Z 25002KT M03/M04 A3034 RMK A01 T10301039  RH  094%=      5-min Rain = 0
KLBW 100105Z 25002KT M03/M04 A3035 RMK A01 T10291037  RH  095%=      5-min Rain = 0
KLBW 100110Z 26001KT M03/M04 A3035 RMK A01 T10291037  RH  095%=      5-min Rain = 0
KLBW 100115Z 30001KT M03/M04 A3035 RMK A01 T10321039  RH  095%=      5-min Rain = 0
KLBW 100120Z 31001KT M03/M03 A3035 RMK A01 T10261031  RH  097%=      5-min Rain = 0
KLBW 100125Z 31002KT M03/M03 A3036 RMK A01 T10281034  RH  097%=      5-min Rain = 0
KLBW 100130Z 31002KT M03/M04 A3036 RMK A01 T10321038  RH  096%=      5-min Rain = 0
KLBW 100135Z 31001KT M03/M04 A3036 RMK A01 T10321037  RH  097%=      5-min Rain = 0
KLBW 100140Z 31001KT M03/M04 A3036 RMK A01 T10321037  RH  097%=      5-min Rain = 0
KLBW 100145Z 31001KT M03/M04 A3036 RMK A01 T10341038  RH  097%=      5-min Rain = 0
KLBW 100150Z 31002KT M04/M04 A3036 RMK A01 T10351039  RH  097%=      5-min Rain = 0
KLBW 100155Z 31002KT M04/M04 A3036 RMK A01 T10351039  RH  097%=      5-min Rain = 0
KLBW 100200Z 31002KT M04/M04 A3036 RMK A01 T10361040  RH  097%=      5-min Rain = 0
KLBW 100205Z 31002KT M04/M04 A3037 RMK A01 T10361041  RH  097%=      5-min Rain = 0
KLBW 100210Z 31002KT M04/M04 A3037 RMK A01 T10371042  RH  097%=      5-min Rain = 0
KLBW 100215Z 31002KT M04/M04 A3037 RMK A01 T10371041  RH  097%=      5-min Rain = 0
KLBW 100220Z 31003KT M04/M04 A3037 RMK A01 T10391043  RH  097%=      5-min Rain = 0
KLBW 100225Z 31003KT M04/M05 A3037 RMK A01 T10401045  RH  097%=      5-min Rain = 0
KLBW 100230Z 31003KT M04/M05 A3037 RMK A01 T10441049  RH  097%=      5-min Rain = 0
KLBW 100235Z 31003KT M05/M05 A3038 RMK A01 T10471052  RH  097%=      5-min Rain = 0
KLBW 100240Z 31003KT M05/M05 A3038 RMK A01 T10481053  RH  097%=      5-min Rain = 0
KLBW 100245Z 31004KT M05/M05 A3038 RMK A01 T10491053  RH  097%=      5-min Rain = 0
KLBW 100250Z 31005KT M05/M05 A3038 RMK A01 T10501053  RH  098%=      5-min Rain = 0
KLBW 100255Z 32005KT M05/M05 A3038 RMK A01 T10491052  RH  098%=      5-min Rain = 0
KLBW 100300Z 31004KT M05/M05 A3038 RMK A01 T10501053  RH  098%=      5-min Rain = 0
KLBW 100305Z 31004KT M05/M06 A3038 RMK A01 T10531055  RH  098%=      5-min Rain = 0
KLBW 100310Z 30004KT M05/M06 A3038 RMK A01 T10521055  RH  099%=      5-min Rain = 0
KLBW 100315Z 30005KT M05/M05 A3038 RMK A01 T10511052  RH  099%=      5-min Rain = 0
KLBW 100320Z 30004KT M05/M05 A3038 RMK A01 T10511052  RH  099%=      5-min Rain = 0
KLBW 100325Z 30003KT M05/M06 A3038 RMK A01 T10541055  RH  099%=      5-min Rain = 0
KLBW 100330Z 30003KT M06/M06 A3038 RMK A01 T10561057  RH  099%=      5-min Rain = 0
KLBW 100335Z 30003KT M06/M06 A3038 RMK A01 T10551056  RH  099%=      5-min Rain = 0
KLBW 100340Z 29003KT M06/M06 A3038 RMK A01 T10561057  RH  100%=      5-min Rain = 0
KLBW 100345Z 29003KT M06/M06 A3038 RMK A01 T10581059  RH  099%=      5-min Rain = 0
KLBW 100350Z 29003KT M06/M06 A3038 RMK A01 T10581058  RH  100%=      5-min Rain = 0
KLBW 100355Z 31002KT M06/M06 A3038 RMK A01 T10601061  RH  099%=      5-min Rain = 0
KLBW 100400Z 32002KT M06/M06 A3038 RMK A01 T10601061  RH  100%=      5-min Rain = 0
KLBW 100405Z 33002KT M06/M06 A3038 RMK A01 T10621062  RH  099%=      5-min Rain = 0
KLBW 100410Z 31003KT M06/M06 A3039 RMK A01 T10621063  RH  100%=      5-min Rain = 0
KLBW 100415Z 30003KT M06/M06 A3039 RMK A01 T10621063  RH  100%=      5-min Rain = 0
KLBW 100420Z 30003KT M06/M06 A3038 RMK A01 T10631064  RH  100%=      5-min Rain = 0
KLBW 100425Z 31003KT M06/M06 A3038 RMK A01 T10621063  RH  100%=      5-min Rain = 0
KLBW 100430Z 30003KT M06/M06 A3039 RMK A01 T10621063  RH  100%=      5-min Rain = 0
KLBW 100435Z 30003KT M06/M06 A3039 RMK A01 T10621063  RH  100%=      5-min Rain = 0
KLBW 100440Z 31004KT M06/M06 A3039 RMK A01 T10631063  RH  100%=      5-min Rain = 0
KLBW 100445Z 30004KT M06/M06 A3039 RMK A01 T10621062  RH  100%=      5-min Rain = 0
KLBW 100450Z 29005KT M06/M06 A3039 RMK A01 T10561056  RH  100%=      5-min Rain = 0
KLBW 100455Z 29003KT M06/M06 A3039 RMK A01 T10581058  RH  100%=      5-min Rain = 0
KLBW 100500Z 29003KT M06/M06 A3039 RMK A01 T10581059  RH  100%=      5-min Rain = 0
KLBW 100505Z 28003KT M06/M06 A3039 RMK A01 T10601060  RH  100%=      5-min Rain = 0
KLBW 100510Z 28004KT M06/M06 A3038 RMK A01 T10601060  RH  100%=      5-min Rain = 0
KLBW 100515Z 28005KT M06/M06 A3039 RMK A01 T10591060  RH  100%=      5-min Rain = 0
KLBW 100520Z 29005KT M06/M06 A3039 RMK A01 T10591059  RH  100%=      5-min Rain = 0
KLBW 100525Z 30004KT M06/M06 A3039 RMK A01 T10561057  RH  100%=      5-min Rain = 0
KLBW 100530Z 30004KT M05/M05 A3039 RMK A01 T10531054  RH  100%=      5-min Rain = 0
KLBW 100535Z 30005KT M05/M05 A3038 RMK A01 T10501051  RH  100%=      5-min Rain = 0
KLBW 100540Z 30005KT M05/M05 A3038 RMK A01 T10481049  RH  100%=      5-min Rain = 0
KLBW 100545Z 30004KT M05/M05 A3038 RMK A01 T10501050  RH  100%=      5-min Rain = 0
KLBW 100550Z 29004KT M05/M05 A3038 RMK A01 T10521052  RH  100%=      5-min Rain = 0
KLBW 100555Z 28003KT M06/M06 A3038 RMK A01 T10551056  RH  099%=      5-min Rain = 0

Page generated in 0.0123 seconds.